sensor_id;sensor_type;location;lat;lon;timestamp;P1;durP1;ratioP1;P2;durP2;ratioP2
38238;SDS011;24035;48.900;9.188;2024-02-26T00:01:55;2.28;;;0.70;;
38238;SDS011;24035;48.900;9.188;2024-02-26T00:04:21;1.33;;;0.60;;
38238;SDS011;24035;48.900;9.188;2024-02-26T00:06:47;1.80;;;0.50;;
38238;SDS011;24035;48.900;9.188;2024-02-26T00:09:15;1.52;;;0.52;;
38238;SDS011;24035;48.900;9.188;2024-02-26T00:11:41;1.75;;;0.50;;
38238;SDS011;24035;48.900;9.188;2024-02-26T00:14:06;0.85;;;0.30;;
38238;SDS011;24035;48.900;9.188;2024-02-26T00:16:32;1.02;;;0.40;;
38238;SDS011;24035;48.900;9.188;2024-02-26T00:18:58;3.30;;;0.50;;
38238;SDS011;24035;48.900;9.188;2024-02-26T00:21:23;2.40;;;0.40;;
38238;SDS011;24035;48.900;9.188;2024-02-26T00:23:49;1.80;;;0.32;;
38238;SDS011;24035;48.900;9.188;2024-02-26T00:26:18;1.17;;;0.30;;
38238;SDS011;24035;48.900;9.188;2024-02-26T00:28:44;1.55;;;0.40;;
38238;SDS011;24035;48.900;9.188;2024-02-26T00:31:10;0.80;;;0.32;;
38238;SDS011;24035;48.900;9.188;2024-02-26T00:33:36;1.45;;;0.43;;
38238;SDS011;24035;48.900;9.188;2024-02-26T00:36:02;0.88;;;0.50;;
38238;SDS011;24035;48.900;9.188;2024-02-26T00:38:29;1.40;;;0.30;;
38238;SDS011;24035;48.900;9.188;2024-02-26T00:40:54;3.28;;;0.60;;
38238;SDS011;24035;48.900;9.188;2024-02-26T00:43:20;1.30;;;0.57;;
38238;SDS011;24035;48.900;9.188;2024-02-26T00:45:46;1.23;;;0.40;;
38238;SDS011;24035;48.900;9.188;2024-02-26T00:48:12;3.17;;;0.52;;
38238;SDS011;24035;48.900;9.188;2024-02-26T00:50:39;2.10;;;0.70;;
38238;SDS011;24035;48.900;9.188;2024-02-26T00:53:05;1.23;;;0.40;;
38238;SDS011;24035;48.900;9.188;2024-02-26T00:55:30;0.75;;;0.20;;
38238;SDS011;24035;48.900;9.188;2024-02-26T00:57:56;1.27;;;0.50;;
38238;SDS011;24035;48.900;9.188;2024-02-26T01:00:22;0.75;;;0.30;;
38238;SDS011;24035;48.900;9.188;2024-02-26T01:02:48;1.73;;;0.50;;
38238;SDS011;24035;48.900;9.188;2024-02-26T01:05:14;1.35;;;0.38;;
38238;SDS011;24035;48.900;9.188;2024-02-26T01:07:40;1.30;;;0.45;;
38238;SDS011;24035;48.900;9.188;2024-02-26T01:10:06;1.23;;;0.38;;
38238;SDS011;24035;48.900;9.188;2024-02-26T01:12:32;1.55;;;0.55;;
38238;SDS011;24035;48.900;9.188;2024-02-26T01:15:02;1.98;;;0.80;;
38238;SDS011;24035;48.900;9.188;2024-02-26T01:17:28;1.27;;;0.40;;
38238;SDS011;24035;48.900;9.188;2024-02-26T01:19:54;1.73;;;0.50;;
38238;SDS011;24035;48.900;9.188;2024-02-26T01:22:20;1.15;;;0.35;;
38238;SDS011;24035;48.900;9.188;2024-02-26T01:24:46;2.42;;;0.57;;
38238;SDS011;24035;48.900;9.188;2024-02-26T01:27:12;1.75;;;0.40;;
38238;SDS011;24035;48.900;9.188;2024-02-26T01:29:39;1.05;;;0.35;;
38238;SDS011;24035;48.900;9.188;2024-02-26T01:32:05;1.75;;;0.50;;
38238;SDS011;24035;48.900;9.188;2024-02-26T01:34:31;2.25;;;0.47;;
38238;SDS011;24035;48.900;9.188;2024-02-26T01:36:57;3.00;;;0.73;;
38238;SDS011;24035;48.900;9.188;2024-02-26T01:39:23;2.22;;;0.60;;
38238;SDS011;24035;48.900;9.188;2024-02-26T01:41:48;0.63;;;0.30;;
38238;SDS011;24035;48.900;9.188;2024-02-26T01:44:14;1.48;;;0.43;;
38238;SDS011;24035;48.900;9.188;2024-02-26T01:46:40;1.10;;;0.35;;
38238;SDS011;24035;48.900;9.188;2024-02-26T01:49:06;1.08;;;0.40;;
38238;SDS011;24035;48.900;9.188;2024-02-26T01:51:33;4.93;;;0.88;;
38238;SDS011;24035;48.900;9.188;2024-02-26T01:53:59;1.73;;;0.50;;
38238;SDS011;24035;48.900;9.188;2024-02-26T01:56:25;1.10;;;0.30;;
38238;SDS011;24035;48.900;9.188;2024-02-26T01:58:55;1.85;;;0.70;;
38238;SDS011;24035;48.900;9.188;2024-02-26T02:01:22;2.15;;;0.43;;
38238;SDS011;24035;48.900;9.188;2024-02-26T02:03:50;2.33;;;0.47;;
38238;SDS011;24035;48.900;9.188;2024-02-26T02:06:16;1.42;;;0.52;;
38238;SDS011;24035;48.900;9.188;2024-02-26T02:08:42;4.63;;;0.60;;
38238;SDS011;24035;48.900;9.188;2024-02-26T02:11:08;3.75;;;0.60;;
38238;SDS011;24035;48.900;9.188;2024-02-26T02:13:36;2.72;;;0.60;;
38238;SDS011;24035;48.900;9.188;2024-02-26T02:16:03;3.13;;;0.57;;
38238;SDS011;24035;48.900;9.188;2024-02-26T02:18:29;1.42;;;0.35;;
38238;SDS011;24035;48.900;9.188;2024-02-26T02:20:55;1.63;;;0.50;;
38238;SDS011;24035;48.900;9.188;2024-02-26T02:23:21;3.47;;;0.40;;
38238;SDS011;24035;48.900;9.188;2024-02-26T02:25:47;0.90;;;0.32;;
38238;SDS011;24035;48.900;9.188;2024-02-26T02:28:13;1.33;;;0.32;;
38238;SDS011;24035;48.900;9.188;2024-02-26T02:30:39;1.95;;;0.70;;
38238;SDS011;24035;48.900;9.188;2024-02-26T02:33:05;1.63;;;0.40;;
38238;SDS011;24035;48.900;9.188;2024-02-26T02:35:31;2.42;;;0.60;;
38238;SDS011;24035;48.900;9.188;2024-02-26T02:37:57;2.60;;;0.30;;
38238;SDS011;24035;48.900;9.188;2024-02-26T02:40:23;1.00;;;0.28;;
38238;SDS011;24035;48.900;9.188;2024-02-26T02:42:49;2.03;;;0.50;;
38238;SDS011;24035;48.900;9.188;2024-02-26T02:45:15;1.17;;;0.30;;
38238;SDS011;24035;48.900;9.188;2024-02-26T02:47:41;1.73;;;0.60;;
38238;SDS011;24035;48.900;9.188;2024-02-26T02:50:06;0.82;;;0.35;;
38238;SDS011;24035;48.900;9.188;2024-02-26T02:52:32;2.70;;;0.45;;
38238;SDS011;24035;48.900;9.188;2024-02-26T02:54:58;1.80;;;0.50;;
38238;SDS011;24035;48.900;9.188;2024-02-26T02:57:24;3.83;;;0.90;;
38238;SDS011;24035;48.900;9.188;2024-02-26T02:59:49;1.75;;;0.70;;
38238;SDS011;24035;48.900;9.188;2024-02-26T03:02:15;1.35;;;0.50;;
38238;SDS011;24035;48.900;9.188;2024-02-26T03:04:41;0.90;;;0.40;;
38238;SDS011;24035;48.900;9.188;2024-02-26T03:07:06;1.25;;;0.60;;
38238;SDS011;24035;48.900;9.188;2024-02-26T03:09:32;3.33;;;0.65;;
38238;SDS011;24035;48.900;9.188;2024-02-26T03:11:58;1.90;;;0.57;;
38238;SDS011;24035;48.900;9.188;2024-02-26T03:14:23;1.95;;;0.55;;
38238;SDS011;24035;48.900;9.188;2024-02-26T03:16:52;1.20;;;0.40;;
38238;SDS011;24035;48.900;9.188;2024-02-26T03:19:19;1.13;;;0.40;;
38238;SDS011;24035;48.900;9.188;2024-02-26T03:21:44;1.33;;;0.40;;
38238;SDS011;24035;48.900;9.188;2024-02-26T03:24:10;1.55;;;0.30;;
38238;SDS011;24035;48.900;9.188;2024-02-26T03:26:37;2.03;;;0.60;;
38238;SDS011;24035;48.900;9.188;2024-02-26T03:29:03;1.48;;;0.47;;
38238;SDS011;24035;48.900;9.188;2024-02-26T03:31:29;1.35;;;0.40;;
38238;SDS011;24035;48.900;9.188;2024-02-26T03:33:55;1.60;;;0.60;;
38238;SDS011;24035;48.900;9.188;2024-02-26T03:36:21;2.15;;;0.52;;
38238;SDS011;24035;48.900;9.188;2024-02-26T03:38:47;1.55;;;0.47;;
38238;SDS011;24035;48.900;9.188;2024-02-26T03:41:13;1.33;;;0.30;;
38238;SDS011;24035;48.900;9.188;2024-02-26T03:43:39;1.63;;;0.30;;
38238;SDS011;24035;48.900;9.188;2024-02-26T03:46:08;1.00;;;0.30;;
38238;SDS011;24035;48.900;9.188;2024-02-26T03:48:36;1.20;;;0.47;;
38238;SDS011;24035;48.900;9.188;2024-02-26T03:51:02;0.82;;;0.30;;
38238;SDS011;24035;48.900;9.188;2024-02-26T03:53:28;0.95;;;0.35;;
38238;SDS011;24035;48.900;9.188;2024-02-26T03:55:54;1.08;;;0.30;;
38238;SDS011;24035;48.900;9.188;2024-02-26T03:58:20;0.93;;;0.30;;
38238;SDS011;24035;48.900;9.188;2024-02-26T04:00:46;1.85;;;0.50;;
38238;SDS011;24035;48.900;9.188;2024-02-26T04:03:15;1.63;;;0.50;;
38238;SDS011;24035;48.900;9.188;2024-02-26T04:05:41;1.73;;;0.50;;
38238;SDS011;24035;48.900;9.188;2024-02-26T04:08:06;0.95;;;0.30;;
38238;SDS011;24035;48.900;9.188;2024-02-26T04:10:35;1.23;;;0.38;;
38238;SDS011;24035;48.900;9.188;2024-02-26T04:13:03;1.17;;;0.45;;
38238;SDS011;24035;48.900;9.188;2024-02-26T04:15:29;3.53;;;0.65;;
38238;SDS011;24035;48.900;9.188;2024-02-26T04:17:55;0.93;;;0.30;;
38238;SDS011;24035;48.900;9.188;2024-02-26T04:20:21;2.03;;;0.60;;
38238;SDS011;24035;48.900;9.188;2024-02-26T04:22:47;1.13;;;0.40;;
38238;SDS011;24035;48.900;9.188;2024-02-26T04:25:12;4.38;;;0.65;;
38238;SDS011;24035;48.900;9.188;2024-02-26T04:27:38;1.42;;;0.40;;
38238;SDS011;24035;48.900;9.188;2024-02-26T04:30:05;3.47;;;0.82;;
38238;SDS011;24035;48.900;9.188;2024-02-26T04:32:31;0.50;;;0.28;;
38238;SDS011;24035;48.900;9.188;2024-02-26T04:34:57;1.50;;;0.60;;
38238;SDS011;24035;48.900;9.188;2024-02-26T04:37:23;1.02;;;0.40;;
38238;SDS011;24035;48.900;9.188;2024-02-26T04:39:48;2.28;;;0.50;;
38238;SDS011;24035;48.900;9.188;2024-02-26T04:42:14;1.25;;;0.40;;
38238;SDS011;24035;48.900;9.188;2024-02-26T04:44:40;1.15;;;0.50;;
38238;SDS011;24035;48.900;9.188;2024-02-26T04:47:05;2.13;;;0.60;;
38238;SDS011;24035;48.900;9.188;2024-02-26T04:49:32;1.38;;;0.60;;
38238;SDS011;24035;48.900;9.188;2024-02-26T04:51:59;0.85;;;0.28;;
38238;SDS011;24035;48.900;9.188;2024-02-26T04:54:24;0.98;;;0.30;;
38238;SDS011;24035;48.900;9.188;2024-02-26T04:56:50;0.68;;;0.28;;
38238;SDS011;24035;48.900;9.188;2024-02-26T04:59:16;1.23;;;0.50;;
38238;SDS011;24035;48.900;9.188;2024-02-26T05:01:42;1.58;;;0.28;;
38238;SDS011;24035;48.900;9.188;2024-02-26T05:04:08;0.90;;;0.30;;
38238;SDS011;24035;48.900;9.188;2024-02-26T05:06:33;1.65;;;0.60;;
38238;SDS011;24035;48.900;9.188;2024-02-26T05:09:01;1.13;;;0.40;;
38238;SDS011;24035;48.900;9.188;2024-02-26T05:11:28;1.38;;;0.40;;
38238;SDS011;24035;48.900;9.188;2024-02-26T05:13:54;1.65;;;0.60;;
38238;SDS011;24035;48.900;9.188;2024-02-26T05:16:20;1.45;;;0.40;;
38238;SDS011;24035;48.900;9.188;2024-02-26T05:18:49;2.50;;;0.50;;
38238;SDS011;24035;48.900;9.188;2024-02-26T05:21:15;2.00;;;0.80;;
38238;SDS011;24035;48.900;9.188;2024-02-26T05:23:40;1.63;;;0.57;;
38238;SDS011;24035;48.900;9.188;2024-02-26T05:26:09;1.80;;;0.40;;
38238;SDS011;24035;48.900;9.188;2024-02-26T05:28:34;1.20;;;0.45;;
38238;SDS011;24035;48.900;9.188;2024-02-26T05:31:01;1.75;;;0.57;;
38238;SDS011;24035;48.900;9.188;2024-02-26T05:33:28;2.20;;;0.80;;
38238;SDS011;24035;48.900;9.188;2024-02-26T05:35:54;2.33;;;0.68;;
38238;SDS011;24035;48.900;9.188;2024-02-26T05:38:20;1.35;;;0.55;;
38238;SDS011;24035;48.900;9.188;2024-02-26T05:40:45;2.03;;;0.50;;
38238;SDS011;24035;48.900;9.188;2024-02-26T05:43:11;3.17;;;0.85;;
38238;SDS011;24035;48.900;9.188;2024-02-26T05:45:40;1.83;;;0.43;;
38238;SDS011;24035;48.900;9.188;2024-02-26T05:48:06;1.83;;;0.43;;
38238;SDS011;24035;48.900;9.188;2024-02-26T05:50:32;0.50;;;0.22;;
38238;SDS011;24035;48.900;9.188;2024-02-26T05:52:57;1.67;;;0.65;;
38238;SDS011;24035;48.900;9.188;2024-02-26T05:55:23;2.67;;;0.57;;
38238;SDS011;24035;48.900;9.188;2024-02-26T05:57:49;0.88;;;0.40;;
38238;SDS011;24035;48.900;9.188;2024-02-26T06:00:15;1.88;;;0.60;;
38238;SDS011;24035;48.900;9.188;2024-02-26T06:02:41;2.10;;;0.60;;
38238;SDS011;24035;48.900;9.188;2024-02-26T06:05:06;1.80;;;0.60;;
38238;SDS011;24035;48.900;9.188;2024-02-26T06:07:34;2.65;;;0.90;;
38238;SDS011;24035;48.900;9.188;2024-02-26T06:10:00;4.60;;;0.85;;
38238;SDS011;24035;48.900;9.188;2024-02-26T06:12:26;1.80;;;0.63;;
38238;SDS011;24035;48.900;9.188;2024-02-26T06:14:53;1.55;;;0.50;;
38238;SDS011;24035;48.900;9.188;2024-02-26T06:17:19;2.47;;;0.70;;
38238;SDS011;24035;48.900;9.188;2024-02-26T06:19:45;1.33;;;0.50;;
38238;SDS011;24035;48.900;9.188;2024-02-26T06:22:11;2.20;;;0.73;;
38238;SDS011;24035;48.900;9.188;2024-02-26T06:24:37;2.53;;;0.57;;
38238;SDS011;24035;48.900;9.188;2024-02-26T06:27:02;1.88;;;0.55;;
38238;SDS011;24035;48.900;9.188;2024-02-26T06:29:28;0.93;;;0.30;;
38238;SDS011;24035;48.900;9.188;2024-02-26T06:31:54;1.90;;;0.52;;
38238;SDS011;24035;48.900;9.188;2024-02-26T06:34:20;2.15;;;1.05;;
38238;SDS011;24035;48.900;9.188;2024-02-26T06:36:46;2.47;;;0.80;;
38238;SDS011;24035;48.900;9.188;2024-02-26T06:39:12;2.67;;;1.00;;
38238;SDS011;24035;48.900;9.188;2024-02-26T06:41:38;2.83;;;0.70;;
38238;SDS011;24035;48.900;9.188;2024-02-26T06:44:04;1.95;;;0.68;;
38238;SDS011;24035;48.900;9.188;2024-02-26T06:46:31;1.90;;;0.88;;
38238;SDS011;24035;48.900;9.188;2024-02-26T06:48:56;1.60;;;0.57;;
38238;SDS011;24035;48.900;9.188;2024-02-26T06:51:22;2.85;;;1.00;;
38238;SDS011;24035;48.900;9.188;2024-02-26T06:53:48;2.72;;;0.82;;
38238;SDS011;24035;48.900;9.188;2024-02-26T06:56:14;2.40;;;0.75;;
38238;SDS011;24035;48.900;9.188;2024-02-26T06:58:40;2.97;;;0.50;;
38238;SDS011;24035;48.900;9.188;2024-02-26T07:01:06;1.70;;;0.52;;
38238;SDS011;24035;48.900;9.188;2024-02-26T07:03:33;1.67;;;0.88;;
38238;SDS011;24035;48.900;9.188;2024-02-26T07:05:59;1.98;;;0.57;;
38238;SDS011;24035;48.900;9.188;2024-02-26T07:08:25;2.42;;;0.70;;
38238;SDS011;24035;48.900;9.188;2024-02-26T07:10:50;2.47;;;0.60;;
38238;SDS011;24035;48.900;9.188;2024-02-26T07:13:16;2.25;;;0.80;;
38238;SDS011;24035;48.900;9.188;2024-02-26T07:15:42;2.08;;;0.90;;
38238;SDS011;24035;48.900;9.188;2024-02-26T07:18:08;1.02;;;0.50;;
38238;SDS011;24035;48.900;9.188;2024-02-26T07:20:35;1.52;;;0.75;;
38238;SDS011;24035;48.900;9.188;2024-02-26T07:23:01;1.10;;;0.40;;
38238;SDS011;24035;48.900;9.188;2024-02-26T07:25:26;2.63;;;0.80;;
38238;SDS011;24035;48.900;9.188;2024-02-26T07:27:52;3.28;;;1.00;;
38238;SDS011;24035;48.900;9.188;2024-02-26T07:30:18;3.97;;;0.82;;
38238;SDS011;24035;48.900;9.188;2024-02-26T07:32:44;2.40;;;0.70;;
38238;SDS011;24035;48.900;9.188;2024-02-26T07:35:09;4.35;;;1.10;;
38238;SDS011;24035;48.900;9.188;2024-02-26T07:37:35;2.20;;;0.82;;
38238;SDS011;24035;48.900;9.188;2024-02-26T07:40:01;1.75;;;0.60;;
38238;SDS011;24035;48.900;9.188;2024-02-26T07:42:28;3.58;;;0.90;;
38238;SDS011;24035;48.900;9.188;2024-02-26T07:44:54;2.30;;;0.60;;
38238;SDS011;24035;48.900;9.188;2024-02-26T07:47:20;1.67;;;0.60;;
38238;SDS011;24035;48.900;9.188;2024-02-26T07:49:46;2.55;;;0.85;;
38238;SDS011;24035;48.900;9.188;2024-02-26T07:52:12;3.42;;;0.70;;
38238;SDS011;24035;48.900;9.188;2024-02-26T07:54:37;3.60;;;0.85;;
38238;SDS011;24035;48.900;9.188;2024-02-26T07:57:03;1.60;;;0.57;;
38238;SDS011;24035;48.900;9.188;2024-02-26T07:59:30;1.95;;;0.70;;
38238;SDS011;24035;48.900;9.188;2024-02-26T08:01:57;6.65;;;0.70;;
38238;SDS011;24035;48.900;9.188;2024-02-26T08:04:22;3.78;;;1.08;;
38238;SDS011;24035;48.900;9.188;2024-02-26T08:06:48;2.47;;;0.75;;
38238;SDS011;24035;48.900;9.188;2024-02-26T08:09:14;2.33;;;0.93;;
38238;SDS011;24035;48.900;9.188;2024-02-26T08:11:40;3.47;;;0.93;;
38238;SDS011;24035;48.900;9.188;2024-02-26T08:14:05;3.00;;;0.80;;
38238;SDS011;24035;48.900;9.188;2024-02-26T08:16:31;2.83;;;1.25;;
38238;SDS011;24035;48.900;9.188;2024-02-26T08:18:57;3.63;;;0.90;;
38238;SDS011;24035;48.900;9.188;2024-02-26T08:21:23;5.55;;;1.05;;
38238;SDS011;24035;48.900;9.188;2024-02-26T08:23:48;4.97;;;1.58;;
38238;SDS011;24035;48.900;9.188;2024-02-26T08:26:14;4.25;;;1.27;;
38238;SDS011;24035;48.900;9.188;2024-02-26T08:28:40;5.93;;;1.40;;
38238;SDS011;24035;48.900;9.188;2024-02-26T08:31:05;1.90;;;0.70;;
38238;SDS011;24035;48.900;9.188;2024-02-26T08:33:32;2.47;;;0.95;;
38238;SDS011;24035;48.900;9.188;2024-02-26T08:35:59;1.98;;;0.70;;
38238;SDS011;24035;48.900;9.188;2024-02-26T08:38:24;3.10;;;0.95;;
38238;SDS011;24035;48.900;9.188;2024-02-26T08:40:50;1.15;;;0.70;;
38238;SDS011;24035;48.900;9.188;2024-02-26T08:43:16;2.05;;;0.70;;
38238;SDS011;24035;48.900;9.188;2024-02-26T08:45:42;2.95;;;1.23;;
38238;SDS011;24035;48.900;9.188;2024-02-26T08:48:08;2.67;;;0.60;;
38238;SDS011;24035;48.900;9.188;2024-02-26T08:50:34;5.15;;;1.45;;
38238;SDS011;24035;48.900;9.188;2024-02-26T08:53:00;3.17;;;0.93;;
38238;SDS011;24035;48.900;9.188;2024-02-26T08:55:26;3.53;;;1.15;;
38238;SDS011;24035;48.900;9.188;2024-02-26T08:57:52;1.65;;;0.70;;
38238;SDS011;24035;48.900;9.188;2024-02-26T09:00:18;3.17;;;0.70;;
38238;SDS011;24035;48.900;9.188;2024-02-26T09:02:46;5.15;;;1.20;;
38238;SDS011;24035;48.900;9.188;2024-02-26T09:05:12;1.95;;;0.63;;
38238;SDS011;24035;48.900;9.188;2024-02-26T09:07:38;2.72;;;1.02;;
38238;SDS011;24035;48.900;9.188;2024-02-26T09:10:04;2.63;;;1.00;;
38238;SDS011;24035;48.900;9.188;2024-02-26T09:12:31;3.92;;;1.10;;
38238;SDS011;24035;48.900;9.188;2024-02-26T09:14:57;2.70;;;1.00;;
38238;SDS011;24035;48.900;9.188;2024-02-26T09:17:22;2.30;;;0.82;;
38238;SDS011;24035;48.900;9.188;2024-02-26T09:19:48;4.15;;;1.40;;
38238;SDS011;24035;48.900;9.188;2024-02-26T09:22:14;2.58;;;0.95;;
38238;SDS011;24035;48.900;9.188;2024-02-26T09:24:39;2.45;;;0.80;;
38238;SDS011;24035;48.900;9.188;2024-02-26T09:27:05;2.58;;;0.77;;
38238;SDS011;24035;48.900;9.188;2024-02-26T09:29:31;1.95;;;0.80;;
38238;SDS011;24035;48.900;9.188;2024-02-26T09:31:58;3.22;;;0.80;;
38238;SDS011;24035;48.900;9.188;2024-02-26T09:34:23;4.32;;;0.93;;
38238;SDS011;24035;48.900;9.188;2024-02-26T09:36:49;3.60;;;0.70;;
38238;SDS011;24035;48.900;9.188;2024-02-26T09:39:15;1.38;;;0.50;;
38238;SDS011;24035;48.900;9.188;2024-02-26T09:41:45;1.58;;;0.55;;
38238;SDS011;24035;48.900;9.188;2024-02-26T09:44:11;1.98;;;0.70;;
38238;SDS011;24035;48.900;9.188;2024-02-26T09:46:40;1.67;;;0.57;;
38238;SDS011;24035;48.900;9.188;2024-02-26T09:49:06;1.60;;;0.60;;
38238;SDS011;24035;48.900;9.188;2024-02-26T09:51:33;3.33;;;0.60;;
38238;SDS011;24035;48.900;9.188;2024-02-26T09:53:59;3.15;;;1.13;;
38238;SDS011;24035;48.900;9.188;2024-02-26T09:56:26;3.45;;;0.80;;
38238;SDS011;24035;48.900;9.188;2024-02-26T09:58:52;2.80;;;0.88;;
38238;SDS011;24035;48.900;9.188;2024-02-26T10:01:21;3.10;;;1.05;;
38238;SDS011;24035;48.900;9.188;2024-02-26T10:03:51;3.15;;;0.93;;
38238;SDS011;24035;48.900;9.188;2024-02-26T10:06:20;2.25;;;0.80;;
38238;SDS011;24035;48.900;9.188;2024-02-26T10:08:46;1.58;;;0.60;;
38238;SDS011;24035;48.900;9.188;2024-02-26T10:11:13;2.13;;;0.60;;
38238;SDS011;24035;48.900;9.188;2024-02-26T10:13:40;3.30;;;0.73;;
38238;SDS011;24035;48.900;9.188;2024-02-26T10:16:06;2.92;;;0.70;;
38238;SDS011;24035;48.900;9.188;2024-02-26T10:18:48;1.85;;;0.70;;
38238;SDS011;24035;48.900;9.188;2024-02-26T10:21:18;1.80;;;0.63;;
38238;SDS011;24035;48.900;9.188;2024-02-26T10:23:47;2.27;;;0.80;;
38238;SDS011;24035;48.900;9.188;2024-02-26T10:26:14;2.72;;;0.57;;
38238;SDS011;24035;48.900;9.188;2024-02-26T10:28:43;4.82;;;0.73;;
38238;SDS011;24035;48.900;9.188;2024-02-26T10:31:10;2.00;;;0.60;;
38238;SDS011;24035;48.900;9.188;2024-02-26T10:33:37;2.65;;;0.70;;
38238;SDS011;24035;48.900;9.188;2024-02-26T10:36:04;1.98;;;0.57;;
38238;SDS011;24035;48.900;9.188;2024-02-26T10:38:30;1.70;;;0.60;;
38238;SDS011;24035;48.900;9.188;2024-02-26T10:40:57;2.05;;;0.73;;
38238;SDS011;24035;48.900;9.188;2024-02-26T10:43:25;2.90;;;0.65;;
38238;SDS011;24035;48.900;9.188;2024-02-26T10:45:50;1.83;;;0.50;;
38238;SDS011;24035;48.900;9.188;2024-02-26T10:48:16;1.85;;;0.63;;
38238;SDS011;24035;48.900;9.188;2024-02-26T10:50:43;1.27;;;0.57;;
38238;SDS011;24035;48.900;9.188;2024-02-26T10:53:21;1.08;;;0.40;;
38238;SDS011;24035;48.900;9.188;2024-02-26T10:55:52;2.00;;;0.73;;
38238;SDS011;24035;48.900;9.188;2024-02-26T10:58:21;1.98;;;0.52;;
38238;SDS011;24035;48.900;9.188;2024-02-26T11:00:49;2.03;;;0.60;;
38238;SDS011;24035;48.900;9.188;2024-02-26T11:03:16;2.00;;;0.60;;
38238;SDS011;24035;48.900;9.188;2024-02-26T11:05:44;1.67;;;0.40;;
38238;SDS011;24035;48.900;9.188;2024-02-26T11:08:16;2.15;;;0.85;;
38238;SDS011;24035;48.900;9.188;2024-02-26T11:10:45;1.27;;;0.47;;
38238;SDS011;24035;48.900;9.188;2024-02-26T11:13:14;1.20;;;0.50;;
38238;SDS011;24035;48.900;9.188;2024-02-26T11:15:44;1.50;;;0.40;;
38238;SDS011;24035;48.900;9.188;2024-02-26T11:18:12;1.67;;;0.50;;
38238;SDS011;24035;48.900;9.188;2024-02-26T11:20:39;1.27;;;0.38;;
38238;SDS011;24035;48.900;9.188;2024-02-26T11:23:06;1.45;;;0.50;;
38238;SDS011;24035;48.900;9.188;2024-02-26T11:25:33;3.20;;;0.75;;
38238;SDS011;24035;48.900;9.188;2024-02-26T11:28:01;1.17;;;0.40;;
38238;SDS011;24035;48.900;9.188;2024-02-26T11:30:31;3.72;;;0.57;;
38238;SDS011;24035;48.900;9.188;2024-02-26T11:32:59;1.13;;;0.40;;
38238;SDS011;24035;48.900;9.188;2024-02-26T11:35:26;1.05;;;0.28;;
38238;SDS011;24035;48.900;9.188;2024-02-26T11:37:54;1.27;;;0.40;;
38238;SDS011;24035;48.900;9.188;2024-02-26T11:40:24;1.48;;;0.50;;
38238;SDS011;24035;48.900;9.188;2024-02-26T11:42:51;1.77;;;0.93;;
38238;SDS011;24035;48.900;9.188;2024-02-26T11:48:02;0.93;;;0.40;;
38238;SDS011;24035;48.900;9.188;2024-02-26T11:50:38;1.25;;;0.40;;
38238;SDS011;24035;48.900;9.188;2024-02-26T11:58:42;1.88;;;0.73;;
38238;SDS011;24035;48.900;9.188;2024-02-26T12:04:02;1.33;;;0.30;;
38238;SDS011;24035;48.900;9.188;2024-02-26T12:06:29;1.13;;;0.38;;
38238;SDS011;24035;48.900;9.188;2024-02-26T12:08:55;1.00;;;0.30;;
38238;SDS011;24035;48.900;9.188;2024-02-26T12:11:21;1.30;;;0.50;;
38238;SDS011;24035;48.900;9.188;2024-02-26T12:13:47;1.65;;;0.47;;
38238;SDS011;24035;48.900;9.188;2024-02-26T12:16:32;0.63;;;0.30;;
38238;SDS011;24035;48.900;9.188;2024-02-26T12:19:10;1.88;;;0.35;;
38238;SDS011;24035;48.900;9.188;2024-02-26T12:21:37;1.33;;;0.43;;
38238;SDS011;24035;48.900;9.188;2024-02-26T12:24:12;3.75;;;0.57;;
38238;SDS011;24035;48.900;9.188;2024-02-26T12:26:39;1.38;;;0.38;;
38238;SDS011;24035;48.900;9.188;2024-02-26T12:29:06;1.75;;;0.43;;
38238;SDS011;24035;48.900;9.188;2024-02-26T12:31:32;2.83;;;0.60;;
38238;SDS011;24035;48.900;9.188;2024-02-26T12:34:01;2.03;;;0.60;;
38238;SDS011;24035;48.900;9.188;2024-02-26T12:36:27;0.68;;;0.20;;
38238;SDS011;24035;48.900;9.188;2024-02-26T12:38:53;1.30;;;0.47;;
38238;SDS011;24035;48.900;9.188;2024-02-26T12:41:19;1.92;;;0.63;;
38238;SDS011;24035;48.900;9.188;2024-02-26T12:43:46;2.65;;;0.40;;
38238;SDS011;24035;48.900;9.188;2024-02-26T12:46:11;1.85;;;0.50;;
38238;SDS011;24035;48.900;9.188;2024-02-26T12:48:38;1.25;;;0.40;;
38238;SDS011;24035;48.900;9.188;2024-02-26T12:51:04;2.83;;;0.68;;
38238;SDS011;24035;48.900;9.188;2024-02-26T12:53:31;0.73;;;0.32;;
38238;SDS011;24035;48.900;9.188;2024-02-26T12:55:57;0.75;;;0.28;;
38238;SDS011;24035;48.900;9.188;2024-02-26T12:58:23;0.98;;;0.30;;
38238;SDS011;24035;48.900;9.188;2024-02-26T13:00:56;1.27;;;0.30;;
38238;SDS011;24035;48.900;9.188;2024-02-26T13:03:22;1.15;;;0.40;;
38238;SDS011;24035;48.900;9.188;2024-02-26T13:05:48;1.75;;;0.50;;
38238;SDS011;24035;48.900;9.188;2024-02-26T13:08:19;1.20;;;0.40;;
38238;SDS011;24035;48.900;9.188;2024-02-26T13:10:46;2.05;;;0.40;;
38238;SDS011;24035;48.900;9.188;2024-02-26T13:13:15;0.98;;;0.35;;
38238;SDS011;24035;48.900;9.188;2024-02-26T13:15:42;1.88;;;0.40;;
38238;SDS011;24035;48.900;9.188;2024-02-26T13:18:12;1.08;;;0.40;;
38238;SDS011;24035;48.900;9.188;2024-02-26T13:20:39;1.27;;;0.40;;
38238;SDS011;24035;48.900;9.188;2024-02-26T13:23:06;0.98;;;0.30;;
38238;SDS011;24035;48.900;9.188;2024-02-26T13:25:35;3.88;;;0.50;;
38238;SDS011;24035;48.900;9.188;2024-02-26T13:28:07;1.58;;;0.50;;
38238;SDS011;24035;48.900;9.188;2024-02-26T13:30:34;0.98;;;0.30;;
38238;SDS011;24035;48.900;9.188;2024-02-26T13:33:07;1.17;;;0.40;;
38238;SDS011;24035;48.900;9.188;2024-02-26T13:35:37;0.85;;;0.30;;
38238;SDS011;24035;48.900;9.188;2024-02-26T13:38:07;0.75;;;0.20;;
38238;SDS011;24035;48.900;9.188;2024-02-26T13:40:32;1.02;;;0.20;;
38238;SDS011;24035;48.900;9.188;2024-02-26T13:42:59;0.45;;;0.10;;
38238;SDS011;24035;48.900;9.188;2024-02-26T13:45:25;1.00;;;0.30;;
38238;SDS011;24035;48.900;9.188;2024-02-26T13:47:51;1.15;;;0.40;;
38238;SDS011;24035;48.900;9.188;2024-02-26T13:50:17;0.28;;;0.20;;
38238;SDS011;24035;48.900;9.188;2024-02-26T13:52:46;0.32;;;0.13;;
38238;SDS011;24035;48.900;9.188;2024-02-26T13:55:12;0.08;;;0.05;;
38238;SDS011;24035;48.900;9.188;2024-02-26T13:57:39;0.85;;;0.17;;
38238;SDS011;24035;48.900;9.188;2024-02-26T14:00:07;1.05;;;0.20;;
38238;SDS011;24035;48.900;9.188;2024-02-26T14:02:35;0.35;;;0.10;;
38238;SDS011;24035;48.900;9.188;2024-02-26T14:05:02;0.45;;;0.22;;
38238;SDS011;24035;48.900;9.188;2024-02-26T14:07:29;0.63;;;0.15;;
38238;SDS011;24035;48.900;9.188;2024-02-26T14:09:57;0.00;;;0.00;;
38238;SDS011;24035;48.900;9.188;2024-02-26T14:12:23;0.10;;;0.00;;
38238;SDS011;24035;48.900;9.188;2024-02-26T14:14:49;0.35;;;0.08;;
38238;SDS011;24035;48.900;9.188;2024-02-26T14:17:15;0.45;;;0.10;;
38238;SDS011;24035;48.900;9.188;2024-02-26T14:19:41;0.88;;;0.10;;
38238;SDS011;24035;48.900;9.188;2024-02-26T14:22:12;0.28;;;0.10;;
38238;SDS011;24035;48.900;9.188;2024-02-26T14:24:38;0.03;;;0.00;;
38238;SDS011;24035;48.900;9.188;2024-02-26T14:27:10;0.40;;;0.10;;
38238;SDS011;24035;48.900;9.188;2024-02-26T14:29:41;0.00;;;0.00;;
38238;SDS011;24035;48.900;9.188;2024-02-26T14:32:08;0.82;;;0.20;;
38238;SDS011;24035;48.900;9.188;2024-02-26T14:34:35;0.10;;;0.00;;
38238;SDS011;24035;48.900;9.188;2024-02-26T14:37:01;0.20;;;0.00;;
38238;SDS011;24035;48.900;9.188;2024-02-26T14:39:27;0.28;;;0.10;;
38238;SDS011;24035;48.900;9.188;2024-02-26T14:41:54;0.40;;;0.10;;
38238;SDS011;24035;48.900;9.188;2024-02-26T14:44:20;1.05;;;0.10;;
38238;SDS011;24035;48.900;9.188;2024-02-26T14:46:46;0.68;;;0.03;;
38238;SDS011;24035;48.900;9.188;2024-02-26T14:49:11;1.73;;;0.25;;
38238;SDS011;24035;48.900;9.188;2024-02-26T14:51:38;0.63;;;0.20;;
38238;SDS011;24035;48.900;9.188;2024-02-26T14:54:03;0.55;;;0.10;;
38238;SDS011;24035;48.900;9.188;2024-02-26T14:56:29;1.25;;;0.20;;